sensor_id;sensor_type;location;lat;lon;timestamp;P1;durP1;ratioP1;P2;durP2;ratioP2
1715;SDS011;855;48.824;9.220;2023-08-17T00:01:51;8.83;;;3.60;;
1715;SDS011;855;48.824;9.220;2023-08-17T00:04:19;6.23;;;3.37;;
1715;SDS011;855;48.824;9.220;2023-08-17T00:06:46;5.77;;;3.43;;
1715;SDS011;855;48.824;9.220;2023-08-17T00:09:13;6.77;;;3.77;;
1715;SDS011;855;48.824;9.220;2023-08-17T00:11:39;7.93;;;4.00;;
1715;SDS011;855;48.824;9.220;2023-08-17T00:14:06;6.73;;;3.57;;
1715;SDS011;855;48.824;9.220;2023-08-17T00:16:33;5.73;;;3.33;;
1715;SDS011;855;48.824;9.220;2023-08-17T00:19:00;4.80;;;2.83;;
1715;SDS011;855;48.824;9.220;2023-08-17T00:21:28;8.20;;;3.63;;
1715;SDS011;855;48.824;9.220;2023-08-17T00:23:55;4.97;;;2.80;;
1715;SDS011;855;48.824;9.220;2023-08-17T00:26:22;7.77;;;3.57;;
1715;SDS011;855;48.824;9.220;2023-08-17T00:28:49;6.30;;;3.60;;
1715;SDS011;855;48.824;9.220;2023-08-17T00:31:16;13.03;;;4.20;;
1715;SDS011;855;48.824;9.220;2023-08-17T00:33:43;10.03;;;4.17;;
1715;SDS011;855;48.824;9.220;2023-08-17T00:36:11;10.83;;;4.80;;
1715;SDS011;855;48.824;9.220;2023-08-17T00:38:39;7.60;;;3.30;;
1715;SDS011;855;48.824;9.220;2023-08-17T00:41:06;6.73;;;3.17;;
1715;SDS011;855;48.824;9.220;2023-08-17T00:43:33;5.07;;;2.97;;
1715;SDS011;855;48.824;9.220;2023-08-17T00:46:00;7.17;;;3.67;;
1715;SDS011;855;48.824;9.220;2023-08-17T00:48:28;4.70;;;3.17;;
1715;SDS011;855;48.824;9.220;2023-08-17T00:50:56;6.77;;;3.23;;
1715;SDS011;855;48.824;9.220;2023-08-17T00:53:25;6.60;;;3.67;;
1715;SDS011;855;48.824;9.220;2023-08-17T00:55:55;5.40;;;3.17;;
1715;SDS011;855;48.824;9.220;2023-08-17T00:58:22;3.17;;;2.50;;
1715;SDS011;855;48.824;9.220;2023-08-17T01:00:50;9.57;;;3.73;;
1715;SDS011;855;48.824;9.220;2023-08-17T01:03:17;6.37;;;3.70;;
1715;SDS011;855;48.824;9.220;2023-08-17T01:05:44;7.50;;;4.10;;
1715;SDS011;855;48.824;9.220;2023-08-17T01:08:11;12.13;;;4.40;;
1715;SDS011;855;48.824;9.220;2023-08-17T01:10:40;10.73;;;5.50;;
1715;SDS011;855;48.824;9.220;2023-08-17T01:13:15;7.67;;;4.27;;
1715;SDS011;855;48.824;9.220;2023-08-17T01:15:49;15.53;;;4.20;;
1715;SDS011;855;48.824;9.220;2023-08-17T01:18:20;7.73;;;4.07;;
1715;SDS011;855;48.824;9.220;2023-08-17T01:20:49;14.70;;;4.87;;
1715;SDS011;855;48.824;9.220;2023-08-17T01:23:19;15.87;;;6.03;;
1715;SDS011;855;48.824;9.220;2023-08-17T01:25:47;10.07;;;5.60;;
1715;SDS011;855;48.824;9.220;2023-08-17T01:28:14;9.93;;;4.80;;
1715;SDS011;855;48.824;9.220;2023-08-17T01:30:42;7.73;;;4.50;;
1715;SDS011;855;48.824;9.220;2023-08-17T01:33:18;13.80;;;5.40;;
1715;SDS011;855;48.824;9.220;2023-08-17T01:35:51;13.40;;;6.13;;
1715;SDS011;855;48.824;9.220;2023-08-17T01:38:25;8.00;;;5.10;;
1715;SDS011;855;48.824;9.220;2023-08-17T01:40:55;9.13;;;5.50;;
1715;SDS011;855;48.824;9.220;2023-08-17T01:43:24;14.00;;;4.87;;
1715;SDS011;855;48.824;9.220;2023-08-17T01:45:52;13.30;;;5.80;;
1715;SDS011;855;48.824;9.220;2023-08-17T01:48:19;10.83;;;5.80;;
1715;SDS011;855;48.824;9.220;2023-08-17T01:50:45;12.53;;;5.10;;
1715;SDS011;855;48.824;9.220;2023-08-17T01:53:12;10.63;;;5.67;;
1715;SDS011;855;48.824;9.220;2023-08-17T01:55:40;8.60;;;4.80;;
1715;SDS011;855;48.824;9.220;2023-08-17T01:58:07;23.03;;;6.00;;
1715;SDS011;855;48.824;9.220;2023-08-17T02:00:34;11.23;;;5.97;;
1715;SDS011;855;48.824;9.220;2023-08-17T02:03:01;11.23;;;5.90;;
1715;SDS011;855;48.824;9.220;2023-08-17T02:05:28;11.70;;;5.60;;
1715;SDS011;855;48.824;9.220;2023-08-17T02:07:55;10.30;;;5.53;;
1715;SDS011;855;48.824;9.220;2023-08-17T02:10:22;10.60;;;5.83;;
1715;SDS011;855;48.824;9.220;2023-08-17T02:12:50;13.50;;;6.43;;
1715;SDS011;855;48.824;9.220;2023-08-17T02:15:16;12.13;;;6.43;;
1715;SDS011;855;48.824;9.220;2023-08-17T02:17:43;7.30;;;4.47;;
1715;SDS011;855;48.824;9.220;2023-08-17T02:20:10;17.60;;;6.23;;
1715;SDS011;855;48.824;9.220;2023-08-17T02:22:38;13.50;;;4.90;;
1715;SDS011;855;48.824;9.220;2023-08-17T02:25:05;11.47;;;5.30;;
1715;SDS011;855;48.824;9.220;2023-08-17T02:27:33;9.70;;;4.40;;
1715;SDS011;855;48.824;9.220;2023-08-17T02:30:03;13.93;;;5.63;;
1715;SDS011;855;48.824;9.220;2023-08-17T02:32:31;14.33;;;5.33;;
1715;SDS011;855;48.824;9.220;2023-08-17T02:34:57;20.00;;;6.53;;
1715;SDS011;855;48.824;9.220;2023-08-17T02:37:24;13.67;;;6.33;;
1715;SDS011;855;48.824;9.220;2023-08-17T02:39:51;13.80;;;5.40;;
1715;SDS011;855;48.824;9.220;2023-08-17T02:42:18;11.03;;;4.60;;
1715;SDS011;855;48.824;9.220;2023-08-17T02:44:45;7.30;;;4.07;;
1715;SDS011;855;48.824;9.220;2023-08-17T02:47:13;16.23;;;5.20;;
1715;SDS011;855;48.824;9.220;2023-08-17T02:49:40;7.60;;;4.90;;
1715;SDS011;855;48.824;9.220;2023-08-17T02:52:07;7.90;;;4.80;;
1715;SDS011;855;48.824;9.220;2023-08-17T02:54:33;16.30;;;5.10;;
1715;SDS011;855;48.824;9.220;2023-08-17T02:57:00;7.50;;;4.57;;
1715;SDS011;855;48.824;9.220;2023-08-17T02:59:27;8.10;;;4.73;;
1715;SDS011;855;48.824;9.220;2023-08-17T03:01:54;7.87;;;3.90;;
1715;SDS011;855;48.824;9.220;2023-08-17T03:04:23;11.20;;;4.40;;
1715;SDS011;855;48.824;9.220;2023-08-17T03:06:50;10.27;;;4.50;;
1715;SDS011;855;48.824;9.220;2023-08-17T03:09:17;6.00;;;3.47;;
1715;SDS011;855;48.824;9.220;2023-08-17T03:11:44;10.10;;;4.73;;
1715;SDS011;855;48.824;9.220;2023-08-17T03:14:10;12.43;;;6.03;;
1715;SDS011;855;48.824;9.220;2023-08-17T03:16:37;10.57;;;5.37;;
1715;SDS011;855;48.824;9.220;2023-08-17T03:19:05;10.90;;;4.87;;
1715;SDS011;855;48.824;9.220;2023-08-17T03:21:37;7.60;;;3.60;;
1715;SDS011;855;48.824;9.220;2023-08-17T03:24:04;6.90;;;3.80;;
1715;SDS011;855;48.824;9.220;2023-08-17T03:26:33;18.00;;;7.10;;
1715;SDS011;855;48.824;9.220;2023-08-17T03:29:00;8.47;;;4.70;;
1715;SDS011;855;48.824;9.220;2023-08-17T03:31:27;13.93;;;5.17;;
1715;SDS011;855;48.824;9.220;2023-08-17T03:33:53;7.67;;;4.20;;
1715;SDS011;855;48.824;9.220;2023-08-17T03:36:21;13.43;;;5.93;;
1715;SDS011;855;48.824;9.220;2023-08-17T03:38:49;19.03;;;5.63;;
1715;SDS011;855;48.824;9.220;2023-08-17T03:41:16;11.07;;;5.40;;
1715;SDS011;855;48.824;9.220;2023-08-17T03:43:43;13.20;;;5.80;;
1715;SDS011;855;48.824;9.220;2023-08-17T03:46:10;12.23;;;5.70;;
1715;SDS011;855;48.824;9.220;2023-08-17T03:48:36;11.17;;;6.20;;
1715;SDS011;855;48.824;9.220;2023-08-17T03:51:03;15.63;;;7.60;;
1715;SDS011;855;48.824;9.220;2023-08-17T03:53:30;9.30;;;4.73;;
1715;SDS011;855;48.824;9.220;2023-08-17T03:55:58;10.13;;;4.60;;
1715;SDS011;855;48.824;9.220;2023-08-17T03:58:25;14.07;;;5.40;;
1715;SDS011;855;48.824;9.220;2023-08-17T04:00:57;17.20;;;6.63;;
1715;SDS011;855;48.824;9.220;2023-08-17T04:03:24;12.97;;;5.20;;
1715;SDS011;855;48.824;9.220;2023-08-17T04:05:50;8.57;;;5.07;;
1715;SDS011;855;48.824;9.220;2023-08-17T04:08:17;11.70;;;6.17;;
1715;SDS011;855;48.824;9.220;2023-08-17T04:10:44;13.13;;;4.90;;
1715;SDS011;855;48.824;9.220;2023-08-17T04:13:12;10.10;;;5.43;;
1715;SDS011;855;48.824;9.220;2023-08-17T04:15:39;12.07;;;5.10;;
1715;SDS011;855;48.824;9.220;2023-08-17T04:18:06;11.40;;;6.00;;
1715;SDS011;855;48.824;9.220;2023-08-17T04:20:32;9.23;;;4.30;;
1715;SDS011;855;48.824;9.220;2023-08-17T04:22:59;10.73;;;5.20;;
1715;SDS011;855;48.824;9.220;2023-08-17T04:25:26;11.77;;;5.27;;
1715;SDS011;855;48.824;9.220;2023-08-17T04:27:53;9.43;;;5.13;;
1715;SDS011;855;48.824;9.220;2023-08-17T04:30:21;10.30;;;5.33;;
1715;SDS011;855;48.824;9.220;2023-08-17T04:32:48;8.97;;;4.20;;
1715;SDS011;855;48.824;9.220;2023-08-17T04:35:17;9.80;;;4.90;;
1715;SDS011;855;48.824;9.220;2023-08-17T04:37:44;9.60;;;5.07;;
1715;SDS011;855;48.824;9.220;2023-08-17T04:40:12;18.67;;;5.70;;
1715;SDS011;855;48.824;9.220;2023-08-17T04:42:39;8.30;;;4.30;;
1715;SDS011;855;48.824;9.220;2023-08-17T04:45:06;10.37;;;4.83;;
1715;SDS011;855;48.824;9.220;2023-08-17T04:47:35;9.90;;;5.17;;
1715;SDS011;855;48.824;9.220;2023-08-17T04:50:01;11.30;;;5.80;;
1715;SDS011;855;48.824;9.220;2023-08-17T04:52:29;13.60;;;6.20;;
1715;SDS011;855;48.824;9.220;2023-08-17T04:54:55;11.73;;;5.30;;
1715;SDS011;855;48.824;9.220;2023-08-17T04:57:22;15.90;;;6.50;;
1715;SDS011;855;48.824;9.220;2023-08-17T04:59:49;13.77;;;5.30;;
1715;SDS011;855;48.824;9.220;2023-08-17T05:02:17;11.30;;;5.20;;
1715;SDS011;855;48.824;9.220;2023-08-17T05:04:45;14.23;;;6.23;;
1715;SDS011;855;48.824;9.220;2023-08-17T05:07:13;13.43;;;5.90;;
1715;SDS011;855;48.824;9.220;2023-08-17T05:09:40;16.60;;;6.83;;
1715;SDS011;855;48.824;9.220;2023-08-17T05:12:07;15.47;;;6.53;;
1715;SDS011;855;48.824;9.220;2023-08-17T05:14:34;18.53;;;7.07;;
1715;SDS011;855;48.824;9.220;2023-08-17T05:17:01;19.07;;;6.63;;
1715;SDS011;855;48.824;9.220;2023-08-17T05:19:28;9.13;;;5.80;;
1715;SDS011;855;48.824;9.220;2023-08-17T05:21:56;9.63;;;4.63;;
1715;SDS011;855;48.824;9.220;2023-08-17T05:24:23;8.93;;;4.63;;
1715;SDS011;855;48.824;9.220;2023-08-17T05:26:50;9.27;;;4.83;;
1715;SDS011;855;48.824;9.220;2023-08-17T05:29:17;11.40;;;4.97;;
1715;SDS011;855;48.824;9.220;2023-08-17T05:31:44;10.43;;;4.70;;
1715;SDS011;855;48.824;9.220;2023-08-17T05:34:10;8.10;;;4.43;;
1715;SDS011;855;48.824;9.220;2023-08-17T05:36:38;10.00;;;4.70;;
1715;SDS011;855;48.824;9.220;2023-08-17T05:39:07;12.87;;;5.53;;
1715;SDS011;855;48.824;9.220;2023-08-17T05:41:34;12.00;;;4.87;;
1715;SDS011;855;48.824;9.220;2023-08-17T05:44:01;9.23;;;5.10;;
1715;SDS011;855;48.824;9.220;2023-08-17T05:46:28;14.23;;;4.97;;
1715;SDS011;855;48.824;9.220;2023-08-17T05:48:55;13.80;;;6.07;;
1715;SDS011;855;48.824;9.220;2023-08-17T05:51:22;8.97;;;4.43;;
1715;SDS011;855;48.824;9.220;2023-08-17T05:53:48;11.30;;;5.40;;
1715;SDS011;855;48.824;9.220;2023-08-17T05:56:16;12.63;;;6.03;;
1715;SDS011;855;48.824;9.220;2023-08-17T05:58:43;10.20;;;5.07;;
1715;SDS011;855;48.824;9.220;2023-08-17T06:01:10;11.77;;;6.00;;
1715;SDS011;855;48.824;9.220;2023-08-17T06:03:38;13.57;;;6.47;;
1715;SDS011;855;48.824;9.220;2023-08-17T06:06:05;12.97;;;5.07;;
1715;SDS011;855;48.824;9.220;2023-08-17T06:08:32;11.77;;;6.57;;
1715;SDS011;855;48.824;9.220;2023-08-17T06:10:59;17.43;;;6.50;;
1715;SDS011;855;48.824;9.220;2023-08-17T06:13:27;14.20;;;5.63;;
1715;SDS011;855;48.824;9.220;2023-08-17T06:15:55;15.67;;;6.53;;
1715;SDS011;855;48.824;9.220;2023-08-17T06:18:22;17.40;;;6.60;;
1715;SDS011;855;48.824;9.220;2023-08-17T06:20:49;14.07;;;6.00;;
1715;SDS011;855;48.824;9.220;2023-08-17T06:23:18;16.30;;;6.17;;
1715;SDS011;855;48.824;9.220;2023-08-17T06:25:45;12.33;;;6.30;;
1715;SDS011;855;48.824;9.220;2023-08-17T06:28:12;13.03;;;7.03;;
1715;SDS011;855;48.824;9.220;2023-08-17T06:30:40;23.53;;;6.80;;
1715;SDS011;855;48.824;9.220;2023-08-17T06:33:07;19.90;;;8.67;;
1715;SDS011;855;48.824;9.220;2023-08-17T06:35:34;10.87;;;5.30;;
1715;SDS011;855;48.824;9.220;2023-08-17T06:38:01;9.60;;;5.77;;
1715;SDS011;855;48.824;9.220;2023-08-17T06:40:27;13.60;;;6.10;;
1715;SDS011;855;48.824;9.220;2023-08-17T06:42:54;19.20;;;8.07;;
1715;SDS011;855;48.824;9.220;2023-08-17T06:45:21;13.50;;;5.63;;
1715;SDS011;855;48.824;9.220;2023-08-17T06:47:49;12.60;;;6.47;;
1715;SDS011;855;48.824;9.220;2023-08-17T06:50:16;16.63;;;7.20;;
1715;SDS011;855;48.824;9.220;2023-08-17T06:52:43;13.00;;;6.57;;
1715;SDS011;855;48.824;9.220;2023-08-17T06:55:10;14.87;;;6.33;;
1715;SDS011;855;48.824;9.220;2023-08-17T06:57:37;14.30;;;6.10;;
1715;SDS011;855;48.824;9.220;2023-08-17T07:00:04;10.17;;;6.33;;
1715;SDS011;855;48.824;9.220;2023-08-17T07:02:31;12.23;;;6.80;;
1715;SDS011;855;48.824;9.220;2023-08-17T07:05:00;15.50;;;6.97;;
1715;SDS011;855;48.824;9.220;2023-08-17T07:07:28;13.30;;;5.50;;
1715;SDS011;855;48.824;9.220;2023-08-17T07:09:56;18.87;;;8.80;;
1715;SDS011;855;48.824;9.220;2023-08-17T07:12:23;15.70;;;7.23;;
1715;SDS011;855;48.824;9.220;2023-08-17T07:14:50;19.00;;;7.80;;
1715;SDS011;855;48.824;9.220;2023-08-17T07:17:17;17.40;;;7.87;;
1715;SDS011;855;48.824;9.220;2023-08-17T07:19:44;16.27;;;8.30;;
1715;SDS011;855;48.824;9.220;2023-08-17T07:22:12;16.37;;;7.07;;
1715;SDS011;855;48.824;9.220;2023-08-17T07:24:39;18.57;;;7.70;;
1715;SDS011;855;48.824;9.220;2023-08-17T07:27:05;18.60;;;8.53;;
1715;SDS011;855;48.824;9.220;2023-08-17T07:29:32;12.67;;;7.40;;
1715;SDS011;855;48.824;9.220;2023-08-17T07:31:59;17.07;;;7.40;;
1715;SDS011;855;48.824;9.220;2023-08-17T07:34:26;21.40;;;9.03;;
1715;SDS011;855;48.824;9.220;2023-08-17T07:36:54;15.43;;;7.03;;
1715;SDS011;855;48.824;9.220;2023-08-17T07:39:22;13.47;;;6.17;;
1715;SDS011;855;48.824;9.220;2023-08-17T07:41:49;16.07;;;7.20;;
1715;SDS011;855;48.824;9.220;2023-08-17T07:44:16;13.00;;;6.73;;
1715;SDS011;855;48.824;9.220;2023-08-17T07:46:43;15.47;;;6.97;;
1715;SDS011;855;48.824;9.220;2023-08-17T07:49:09;12.63;;;6.90;;
1715;SDS011;855;48.824;9.220;2023-08-17T07:51:36;16.10;;;6.27;;
1715;SDS011;855;48.824;9.220;2023-08-17T07:54:03;26.93;;;8.50;;
1715;SDS011;855;48.824;9.220;2023-08-17T07:56:32;15.70;;;6.40;;
1715;SDS011;855;48.824;9.220;2023-08-17T07:59:00;13.30;;;7.27;;
1715;SDS011;855;48.824;9.220;2023-08-17T08:01:28;14.63;;;5.90;;
1715;SDS011;855;48.824;9.220;2023-08-17T08:03:54;12.47;;;5.90;;
1715;SDS011;855;48.824;9.220;2023-08-17T08:06:21;12.73;;;5.73;;
1715;SDS011;855;48.824;9.220;2023-08-17T08:08:49;14.63;;;6.20;;
1715;SDS011;855;48.824;9.220;2023-08-17T08:11:16;9.77;;;5.40;;
1715;SDS011;855;48.824;9.220;2023-08-17T08:13:44;10.70;;;5.73;;
1715;SDS011;855;48.824;9.220;2023-08-17T08:16:10;12.53;;;6.07;;
1715;SDS011;855;48.824;9.220;2023-08-17T08:18:37;9.63;;;5.73;;
1715;SDS011;855;48.824;9.220;2023-08-17T08:21:04;9.53;;;6.10;;
1715;SDS011;855;48.824;9.220;2023-08-17T08:23:31;15.77;;;6.70;;
1715;SDS011;855;48.824;9.220;2023-08-17T08:25:58;17.60;;;7.17;;
1715;SDS011;855;48.824;9.220;2023-08-17T08:28:24;13.60;;;6.87;;
1715;SDS011;855;48.824;9.220;2023-08-17T08:30:53;14.53;;;6.67;;
1715;SDS011;855;48.824;9.220;2023-08-17T08:33:19;9.20;;;5.93;;
1715;SDS011;855;48.824;9.220;2023-08-17T08:35:46;14.37;;;6.10;;
1715;SDS011;855;48.824;9.220;2023-08-17T08:38:13;12.20;;;5.83;;
1715;SDS011;855;48.824;9.220;2023-08-17T08:40:40;11.23;;;5.47;;
1715;SDS011;855;48.824;9.220;2023-08-17T08:43:08;13.43;;;6.50;;
1715;SDS011;855;48.824;9.220;2023-08-17T08:45:35;9.43;;;5.20;;
1715;SDS011;855;48.824;9.220;2023-08-17T08:48:05;12.63;;;5.93;;
1715;SDS011;855;48.824;9.220;2023-08-17T08:50:33;11.50;;;6.23;;
1715;SDS011;855;48.824;9.220;2023-08-17T08:53:02;13.50;;;5.63;;
1715;SDS011;855;48.824;9.220;2023-08-17T08:55:36;11.23;;;6.70;;
1715;SDS011;855;48.824;9.220;2023-08-17T08:58:04;14.93;;;6.20;;
1715;SDS011;855;48.824;9.220;2023-08-17T09:00:32;16.30;;;7.53;;
1715;SDS011;855;48.824;9.220;2023-08-17T09:03:00;12.10;;;5.83;;
1715;SDS011;855;48.824;9.220;2023-08-17T09:05:30;15.87;;;6.67;;
1715;SDS011;855;48.824;9.220;2023-08-17T09:07:59;12.33;;;5.87;;
1715;SDS011;855;48.824;9.220;2023-08-17T09:10:28;13.40;;;7.60;;
1715;SDS011;855;48.824;9.220;2023-08-17T09:12:55;9.80;;;5.63;;
1715;SDS011;855;48.824;9.220;2023-08-17T09:15:21;9.70;;;5.90;;
1715;SDS011;855;48.824;9.220;2023-08-17T09:17:48;14.67;;;7.03;;
1715;SDS011;855;48.824;9.220;2023-08-17T09:23:09;10.90;;;6.70;;
1715;SDS011;855;48.824;9.220;2023-08-17T09:25:38;16.47;;;6.77;;
1715;SDS011;855;48.824;9.220;2023-08-17T09:28:07;16.93;;;7.53;;
1715;SDS011;855;48.824;9.220;2023-08-17T09:30:46;14.17;;;5.10;;
1715;SDS011;855;48.824;9.220;2023-08-17T09:33:19;17.17;;;7.17;;
1715;SDS011;855;48.824;9.220;2023-08-17T09:35:48;16.17;;;6.77;;
1715;SDS011;855;48.824;9.220;2023-08-17T09:38:15;10.90;;;6.17;;
1715;SDS011;855;48.824;9.220;2023-08-17T09:40:42;12.20;;;7.00;;
1715;SDS011;855;48.824;9.220;2023-08-17T09:43:09;12.20;;;5.10;;
1715;SDS011;855;48.824;9.220;2023-08-17T09:45:37;10.37;;;6.53;;
1715;SDS011;855;48.824;9.220;2023-08-17T09:48:04;12.57;;;6.80;;
1715;SDS011;855;48.824;9.220;2023-08-17T09:50:31;11.87;;;6.40;;
1715;SDS011;855;48.824;9.220;2023-08-17T09:53:01;12.03;;;5.50;;
1715;SDS011;855;48.824;9.220;2023-08-17T09:55:29;14.13;;;6.07;;
1715;SDS011;855;48.824;9.220;2023-08-17T09:57:56;12.37;;;6.53;;
1715;SDS011;855;48.824;9.220;2023-08-17T10:00:24;12.47;;;6.63;;
1715;SDS011;855;48.824;9.220;2023-08-17T10:02:52;12.30;;;6.17;;
1715;SDS011;855;48.824;9.220;2023-08-17T10:05:19;13.87;;;7.97;;
1715;SDS011;855;48.824;9.220;2023-08-17T10:07:48;12.40;;;6.33;;
1715;SDS011;855;48.824;9.220;2023-08-17T10:10:21;12.60;;;5.60;;
1715;SDS011;855;48.824;9.220;2023-08-17T10:12:53;15.60;;;8.03;;
1715;SDS011;855;48.824;9.220;2023-08-17T10:15:25;9.03;;;5.47;;
1715;SDS011;855;48.824;9.220;2023-08-17T10:17:58;14.23;;;8.27;;
1715;SDS011;855;48.824;9.220;2023-08-17T10:20:34;11.70;;;6.33;;
1715;SDS011;855;48.824;9.220;2023-08-17T10:23:07;12.03;;;5.50;;
1715;SDS011;855;48.824;9.220;2023-08-17T10:25:39;11.53;;;6.40;;
1715;SDS011;855;48.824;9.220;2023-08-17T10:28:08;15.57;;;5.83;;
1715;SDS011;855;48.824;9.220;2023-08-17T10:30:36;13.03;;;6.30;;
1715;SDS011;855;48.824;9.220;2023-08-17T10:33:03;9.50;;;5.87;;
1715;SDS011;855;48.824;9.220;2023-08-17T10:35:32;13.07;;;6.43;;
1715;SDS011;855;48.824;9.220;2023-08-17T10:38:02;13.10;;;6.23;;
1715;SDS011;855;48.824;9.220;2023-08-17T10:40:34;15.60;;;6.40;;
1715;SDS011;855;48.824;9.220;2023-08-17T10:43:03;10.87;;;7.10;;
1715;SDS011;855;48.824;9.220;2023-08-17T10:45:30;12.50;;;7.00;;
1715;SDS011;855;48.824;9.220;2023-08-17T10:48:00;10.43;;;5.33;;
1715;SDS011;855;48.824;9.220;2023-08-17T10:50:41;11.10;;;5.93;;
1715;SDS011;855;48.824;9.220;2023-08-17T10:53:26;14.60;;;5.73;;
1715;SDS011;855;48.824;9.220;2023-08-17T10:55:57;10.50;;;6.43;;
1715;SDS011;855;48.824;9.220;2023-08-17T10:58:26;12.23;;;5.83;;
1715;SDS011;855;48.824;9.220;2023-08-17T11:00:59;10.73;;;5.57;;
1715;SDS011;855;48.824;9.220;2023-08-17T11:03:26;14.27;;;6.53;;
1715;SDS011;855;48.824;9.220;2023-08-17T11:05:54;11.50;;;5.73;;
1715;SDS011;855;48.824;9.220;2023-08-17T11:08:22;7.20;;;5.23;;
1715;SDS011;855;48.824;9.220;2023-08-17T11:10:57;10.50;;;5.80;;
1715;SDS011;855;48.824;9.220;2023-08-17T11:13:28;12.63;;;6.87;;
1715;SDS011;855;48.824;9.220;2023-08-17T11:15:57;9.30;;;6.43;;
1715;SDS011;855;48.824;9.220;2023-08-17T11:18:24;14.03;;;5.80;;
1715;SDS011;855;48.824;9.220;2023-08-17T11:20:51;10.50;;;5.40;;
1715;SDS011;855;48.824;9.220;2023-08-17T11:23:19;11.20;;;6.47;;
1715;SDS011;855;48.824;9.220;2023-08-17T11:25:46;10.97;;;7.17;;
1715;SDS011;855;48.824;9.220;2023-08-17T11:28:13;10.30;;;6.37;;
1715;SDS011;855;48.824;9.220;2023-08-17T11:30:42;14.23;;;5.73;;
1715;SDS011;855;48.824;9.220;2023-08-17T11:33:09;7.60;;;4.90;;
1715;SDS011;855;48.824;9.220;2023-08-17T11:35:36;11.30;;;6.20;;
1715;SDS011;855;48.824;9.220;2023-08-17T11:38:04;8.73;;;5.70;;
1715;SDS011;855;48.824;9.220;2023-08-17T11:40:31;10.57;;;4.77;;
1715;SDS011;855;48.824;9.220;2023-08-17T11:42:59;9.53;;;5.90;;
1715;SDS011;855;48.824;9.220;2023-08-17T11:45:25;8.90;;;6.23;;
1715;SDS011;855;48.824;9.220;2023-08-17T11:47:54;8.90;;;6.03;;
1715;SDS011;855;48.824;9.220;2023-08-17T11:50:21;12.07;;;6.00;;
1715;SDS011;855;48.824;9.220;2023-08-17T11:52:48;13.57;;;5.37;;
1715;SDS011;855;48.824;9.220;2023-08-17T11:55:16;13.27;;;6.37;;
1715;SDS011;855;48.824;9.220;2023-08-17T11:57:44;8.53;;;5.03;;
1715;SDS011;855;48.824;9.220;2023-08-17T12:00:16;11.60;;;5.97;;
1715;SDS011;855;48.824;9.220;2023-08-17T12:02:46;9.67;;;5.77;;
1715;SDS011;855;48.824;9.220;2023-08-17T12:05:15;10.50;;;5.70;;
1715;SDS011;855;48.824;9.220;2023-08-17T12:07:45;8.67;;;6.00;;
1715;SDS011;855;48.824;9.220;2023-08-17T12:10:12;9.93;;;5.53;;
1715;SDS011;855;48.824;9.220;2023-08-17T12:12:39;8.60;;;5.37;;
1715;SDS011;855;48.824;9.220;2023-08-17T12:15:06;8.80;;;5.30;;
1715;SDS011;855;48.824;9.220;2023-08-17T12:17:35;11.83;;;6.00;;
1715;SDS011;855;48.824;9.220;2023-08-17T12:20:07;13.90;;;7.70;;
1715;SDS011;855;48.824;9.220;2023-08-17T12:22:36;12.27;;;7.00;;
1715;SDS011;855;48.824;9.220;2023-08-17T12:25:06;15.20;;;6.93;;
1715;SDS011;855;48.824;9.220;2023-08-17T12:27:35;7.97;;;5.73;;
1715;SDS011;855;48.824;9.220;2023-08-17T12:30:02;11.40;;;6.00;;
1715;SDS011;855;48.824;9.220;2023-08-17T12:32:29;11.87;;;6.90;;
1715;SDS011;855;48.824;9.220;2023-08-17T12:34:56;16.80;;;6.43;;
1715;SDS011;855;48.824;9.220;2023-08-17T12:37:22;12.97;;;7.40;;
1715;SDS011;855;48.824;9.220;2023-08-17T12:39:50;9.00;;;5.23;;
1715;SDS011;855;48.824;9.220;2023-08-17T12:42:17;11.00;;;5.67;;
1715;SDS011;855;48.824;9.220;2023-08-17T12:44:44;13.67;;;6.73;;
1715;SDS011;855;48.824;9.220;2023-08-17T12:47:11;10.00;;;5.80;;
1715;SDS011;855;48.824;9.220;2023-08-17T12:49:38;12.37;;;5.70;;
1715;SDS011;855;48.824;9.220;2023-08-17T12:52:05;12.03;;;5.30;;
1715;SDS011;855;48.824;9.220;2023-08-17T12:54:32;8.30;;;5.30;;
1715;SDS011;855;48.824;9.220;2023-08-17T12:57:00;8.73;;;4.63;;
1715;SDS011;855;48.824;9.220;2023-08-17T12:59:28;10.23;;;6.03;;
1715;SDS011;855;48.824;9.220;2023-08-17T13:01:54;8.67;;;4.73;;
1715;SDS011;855;48.824;9.220;2023-08-17T13:04:21;6.57;;;4.47;;
1715;SDS011;855;48.824;9.220;2023-08-17T13:06:48;6.63;;;4.53;;
1715;SDS011;855;48.824;9.220;2023-08-17T13:09:16;8.27;;;4.60;;
1715;SDS011;855;48.824;9.220;2023-08-17T13:11:43;8.63;;;4.10;;
1715;SDS011;855;48.824;9.220;2023-08-17T13:14:12;14.77;;;5.30;;
1715;SDS011;855;48.824;9.220;2023-08-17T13:16:39;7.77;;;3.67;;
1715;SDS011;855;48.824;9.220;2023-08-17T13:19:06;5.23;;;3.50;;
1715;SDS011;855;48.824;9.220;2023-08-17T13:21:33;7.10;;;4.00;;
1715;SDS011;855;48.824;9.220;2023-08-17T13:24:00;7.70;;;4.27;;
1715;SDS011;855;48.824;9.220;2023-08-17T13:26:28;6.23;;;3.90;;
1715;SDS011;855;48.824;9.220;2023-08-17T13:28:55;12.03;;;4.30;;
1715;SDS011;855;48.824;9.220;2023-08-17T13:31:23;8.03;;;4.83;;
1715;SDS011;855;48.824;9.220;2023-08-17T13:33:50;12.30;;;4.90;;
1715;SDS011;855;48.824;9.220;2023-08-17T13:36:17;10.13;;;5.63;;
1715;SDS011;855;48.824;9.220;2023-08-17T13:38:44;7.97;;;4.27;;
1715;SDS011;855;48.824;9.220;2023-08-17T13:41:11;7.10;;;4.67;;
1715;SDS011;855;48.824;9.220;2023-08-17T13:43:38;7.40;;;4.50;;
1715;SDS011;855;48.824;9.220;2023-08-17T13:46:06;8.33;;;5.30;;
1715;SDS011;855;48.824;9.220;2023-08-17T13:48:34;15.20;;;6.37;;
1715;SDS011;855;48.824;9.220;2023-08-17T13:51:03;8.07;;;5.73;;
1715;SDS011;855;48.824;9.220;2023-08-17T13:53:30;8.30;;;5.60;;
1715;SDS011;855;48.824;9.220;2023-08-17T13:55:57;10.90;;;5.70;;
1715;SDS011;855;48.824;9.220;2023-08-17T13:58:24;14.20;;;7.20;;
1715;SDS011;855;48.824;9.220;2023-08-17T14:00:51;11.30;;;6.63;;
1715;SDS011;855;48.824;9.220;2023-08-17T14:03:18;13.27;;;6.47;;
1715;SDS011;855;48.824;9.220;2023-08-17T14:05:46;9.73;;;5.33;;
1715;SDS011;855;48.824;9.220;2023-08-17T14:08:13;11.90;;;6.40;;
1715;SDS011;855;48.824;9.220;2023-08-17T14:10:40;13.33;;;6.90;;
1715;SDS011;855;48.824;9.220;2023-08-17T14:13:07;11.70;;;6.10;;
1715;SDS011;855;48.824;9.220;2023-08-17T14:15:34;14.00;;;5.97;;
1715;SDS011;855;48.824;9.220;2023-08-17T14:18:01;12.43;;;6.83;;
1715;SDS011;855;48.824;9.220;2023-08-17T14:20:28;13.20;;;6.37;;
1715;SDS011;855;48.824;9.220;2023-08-17T14:22:56;10.30;;;6.63;;
1715;SDS011;855;48.824;9.220;2023-08-17T14:25:23;13.07;;;6.20;;
1715;SDS011;855;48.824;9.220;2023-08-17T14:27:50;12.90;;;7.03;;
1715;SDS011;855;48.824;9.220;2023-08-17T14:30:17;13.27;;;7.07;;
1715;SDS011;855;48.824;9.220;2023-08-17T14:32:44;10.77;;;5.67;;
1715;SDS011;855;48.824;9.220;2023-08-17T14:35:11;11.93;;;5.77;;
1715;SDS011;855;48.824;9.220;2023-08-17T14:37:38;6.23;;;4.93;;
1715;SDS011;855;48.824;9.220;2023-08-17T14:40:07;11.30;;;6.37;;
1715;SDS011;855;48.824;9.220;2023-08-17T14:42:34;7.57;;;5.20;;
1715;SDS011;855;48.824;9.220;2023-08-17T14:45:03;10.50;;;6.03;;
1715;SDS011;855;48.824;9.220;2023-08-17T14:47:30;11.37;;;4.93;;
1715;SDS011;855;48.824;9.220;2023-08-17T14:49:57;8.53;;;5.07;;
1715;SDS011;855;48.824;9.220;2023-08-17T14:52:24;11.53;;;4.67;;
1715;SDS011;855;48.824;9.220;2023-08-17T14:54:51;7.40;;;4.90;;
1715;SDS011;855;48.824;9.220;2023-08-17T14:57:19;13.93;;;5.50;;
1715;SDS011;855;48.824;9.220;2023-08-17T14:59:46;9.37;;;5.37;;
1715;SDS011;855;48.824;9.220;2023-08-17T15:02:13;15.60;;;5.87;;
1715;SDS011;855;48.824;9.220;2023-08-17T15:04:41;9.40;;;5.23;;
1715;SDS011;855;48.824;9.220;2023-08-17T15:07:08;10.93;;;5.30;;
1715;SDS011;855;48.824;9.220;2023-08-17T15:09:36;13.43;;;5.27;;
1715;SDS011;855;48.824;9.220;2023-08-17T15:12:03;10.10;;;5.23;;
1715;SDS011;855;48.824;9.220;2023-08-17T15:14:31;12.33;;;5.53;;
1715;SDS011;855;48.824;9.220;2023-08-17T15:16:58;8.50;;;5.07;;
1715;SDS011;855;48.824;9.220;2023-08-17T15:19:25;10.77;;;6.00;;
1715;SDS011;855;48.824;9.220;2023-08-17T15:21:52;9.70;;;5.70;;
1715;SDS011;855;48.824;9.220;2023-08-17T15:24:19;10.80;;;5.27;;
1715;SDS011;855;48.824;9.220;2023-08-17T15:26:46;10.80;;;5.50;;